sensor_id;sensor_type;location;lat;lon;timestamp;temperature;humidity
75615;DHT22;64199;48.578;-4.520;2023-02-03T00:02:19;21.80;48.80
75615;DHT22;64199;48.578;-4.520;2023-02-03T00:04:44;21.70;48.70
75615;DHT22;64199;48.578;-4.520;2023-02-03T00:07:10;21.70;48.70
75615;DHT22;64199;48.578;-4.520;2023-02-03T00:09:36;21.60;48.20
75615;DHT22;64199;48.578;-4.520;2023-02-03T00:12:02;21.60;48.70
75615;DHT22;64199;48.578;-4.520;2023-02-03T00:14:28;21.60;48.70
75615;DHT22;64199;48.578;-4.520;2023-02-03T00:16:53;21.50;48.20
75615;DHT22;64199;48.578;-4.520;2023-02-03T00:19:19;21.50;48.80
75615;DHT22;64199;48.578;-4.520;2023-02-03T00:21:45;21.50;48.30
75615;DHT22;64199;48.578;-4.520;2023-02-03T00:24:13;21.40;48.80
75615;DHT22;64199;48.578;-4.520;2023-02-03T00:26:42;21.30;48.20
75615;DHT22;64199;48.578;-4.520;2023-02-03T00:29:07;21.40;48.80
75615;DHT22;64199;48.578;-4.520;2023-02-03T00:31:34;21.30;48.80
75615;DHT22;64199;48.578;-4.520;2023-02-03T00:33:59;21.30;48.30
75615;DHT22;64199;48.578;-4.520;2023-02-03T00:36:25;21.30;48.80
75615;DHT22;64199;48.578;-4.520;2023-02-03T00:38:51;21.20;48.80
75615;DHT22;64199;48.578;-4.520;2023-02-03T00:41:18;21.20;48.90
75615;DHT22;64199;48.578;-4.520;2023-02-03T00:43:43;21.10;48.40
75615;DHT22;64199;48.578;-4.520;2023-02-03T00:46:09;21.10;49.00
75615;DHT22;64199;48.578;-4.520;2023-02-03T00:48:35;21.10;48.90
75615;DHT22;64199;48.578;-4.520;2023-02-03T00:51:00;21.10;49.00
75615;DHT22;64199;48.578;-4.520;2023-02-03T00:53:26;21.00;49.00
75615;DHT22;64199;48.578;-4.520;2023-02-03T00:55:52;21.00;48.50
75615;DHT22;64199;48.578;-4.520;2023-02-03T00:58:17;21.00;49.00
75615;DHT22;64199;48.578;-4.520;2023-02-03T01:00:43;20.90;48.90
75615;DHT22;64199;48.578;-4.520;2023-02-03T01:03:09;20.90;49.10
75615;DHT22;64199;48.578;-4.520;2023-02-03T01:05:35;20.90;48.60
75615;DHT22;64199;48.578;-4.520;2023-02-03T01:08:00;20.90;49.20
75615;DHT22;64199;48.578;-4.520;2023-02-03T01:10:26;20.80;49.10
75615;DHT22;64199;48.578;-4.520;2023-02-03T01:12:52;20.80;49.10
75615;DHT22;64199;48.578;-4.520;2023-02-03T01:15:18;20.80;49.20
75615;DHT22;64199;48.578;-4.520;2023-02-03T01:17:44;20.70;48.70
75615;DHT22;64199;48.578;-4.520;2023-02-03T01:20:09;20.70;49.20
75615;DHT22;64199;48.578;-4.520;2023-02-03T01:22:38;20.70;49.20
75615;DHT22;64199;48.578;-4.520;2023-02-03T01:25:04;20.70;49.30
75615;DHT22;64199;48.578;-4.520;2023-02-03T01:27:30;20.60;49.30
75615;DHT22;64199;48.578;-4.520;2023-02-03T01:29:56;20.60;49.40
75615;DHT22;64199;48.578;-4.520;2023-02-03T01:32:22;20.60;49.50
75615;DHT22;64199;48.578;-4.520;2023-02-03T01:34:47;20.60;49.50
75615;DHT22;64199;48.578;-4.520;2023-02-03T01:37:13;20.50;49.50
75615;DHT22;64199;48.578;-4.520;2023-02-03T01:39:41;20.50;49.50
75615;DHT22;64199;48.578;-4.520;2023-02-03T01:42:07;20.50;49.50
75615;DHT22;64199;48.578;-4.520;2023-02-03T01:44:49;20.50;49.60
75615;DHT22;64199;48.578;-4.520;2023-02-03T01:47:23;20.40;49.50
75615;DHT22;64199;48.578;-4.520;2023-02-03T01:49:52;20.40;49.70
75615;DHT22;64199;48.578;-4.520;2023-02-03T01:52:20;20.40;49.70
75615;DHT22;64199;48.578;-4.520;2023-02-03T01:54:46;20.30;49.70
75615;DHT22;64199;48.578;-4.520;2023-02-03T01:57:14;20.30;49.30
75615;DHT22;64199;48.578;-4.520;2023-02-03T01:59:41;20.20;49.20
75615;DHT22;64199;48.578;-4.520;2023-02-03T02:02:07;20.20;49.80
75615;DHT22;64199;48.578;-4.520;2023-02-03T02:04:36;20.20;49.80
75615;DHT22;64199;48.578;-4.520;2023-02-03T02:07:04;20.20;49.80
75615;DHT22;64199;48.578;-4.520;2023-02-03T02:09:30;20.20;49.90
75615;DHT22;64199;48.578;-4.520;2023-02-03T02:11:56;20.20;50.00
75615;DHT22;64199;48.578;-4.520;2023-02-03T02:14:22;20.10;50.00
75615;DHT22;64199;48.578;-4.520;2023-02-03T02:21:58;20.10;50.20
75615;DHT22;64199;48.578;-4.520;2023-02-03T02:44:38;20.40;50.80
75615;DHT22;64199;48.578;-4.520;2023-02-03T02:47:07;20.40;50.80
75615;DHT22;64199;48.578;-4.520;2023-02-03T02:52:04;20.50;50.90
75615;DHT22;64199;48.578;-4.520;2023-02-03T02:54:30;20.50;50.90
75615;DHT22;64199;48.578;-4.520;2023-02-03T02:56:59;20.50;50.90
75615;DHT22;64199;48.578;-4.520;2023-02-03T02:59:25;20.60;51.00
75615;DHT22;64199;48.578;-4.520;2023-02-03T03:01:51;20.60;51.00
75615;DHT22;64199;48.578;-4.520;2023-02-03T03:04:18;20.70;51.10
75615;DHT22;64199;48.578;-4.520;2023-02-03T03:06:45;20.70;51.10
75615;DHT22;64199;48.578;-4.520;2023-02-03T03:09:23;20.70;51.10
75615;DHT22;64199;48.578;-4.520;2023-02-03T03:11:52;20.80;51.10
75615;DHT22;64199;48.578;-4.520;2023-02-03T03:14:19;20.70;51.00
75615;DHT22;64199;48.578;-4.520;2023-02-03T03:16:47;20.80;51.00
75615;DHT22;64199;48.578;-4.520;2023-02-03T03:19:18;20.80;51.10
75615;DHT22;64199;48.578;-4.520;2023-02-03T03:21:46;20.90;50.60
75615;DHT22;64199;48.578;-4.520;2023-02-03T03:24:14;20.90;51.00
75615;DHT22;64199;48.578;-4.520;2023-02-03T03:26:44;20.90;51.00
75615;DHT22;64199;48.578;-4.520;2023-02-03T03:29:14;20.90;51.00
75615;DHT22;64199;48.578;-4.520;2023-02-03T03:31:40;20.90;51.00
75615;DHT22;64199;48.578;-4.520;2023-02-03T03:34:10;21.00;51.00
75615;DHT22;64199;48.578;-4.520;2023-02-03T03:36:51;21.00;51.00
75615;DHT22;64199;48.578;-4.520;2023-02-03T03:39:30;21.10;51.00
75615;DHT22;64199;48.578;-4.520;2023-02-03T03:42:09;21.00;50.90
75615;DHT22;64199;48.578;-4.520;2023-02-03T03:44:44;21.10;50.90
75615;DHT22;64199;48.578;-4.520;2023-02-03T03:47:13;21.10;50.80
75615;DHT22;64199;48.578;-4.520;2023-02-03T03:49:40;21.10;50.70
75615;DHT22;64199;48.578;-4.520;2023-02-03T03:52:09;21.20;50.70
75615;DHT22;64199;48.578;-4.520;2023-02-03T03:54:36;21.20;50.70
75615;DHT22;64199;48.578;-4.520;2023-02-03T03:59:34;21.20;50.70
75615;DHT22;64199;48.578;-4.520;2023-02-03T04:02:01;21.30;50.70
75615;DHT22;64199;48.578;-4.520;2023-02-03T04:04:28;21.30;50.70
75615;DHT22;64199;48.578;-4.520;2023-02-03T04:06:55;21.30;50.10
75615;DHT22;64199;48.578;-4.520;2023-02-03T04:09:21;21.30;50.70
75615;DHT22;64199;48.578;-4.520;2023-02-03T04:11:47;21.30;50.60
75615;DHT22;64199;48.578;-4.520;2023-02-03T04:14:34;21.40;50.60
75615;DHT22;64199;48.578;-4.520;2023-02-03T04:17:00;21.40;50.60
75615;DHT22;64199;48.578;-4.520;2023-02-03T04:19:26;21.40;50.60
75615;DHT22;64199;48.578;-4.520;2023-02-03T04:21:52;21.40;50.60
75615;DHT22;64199;48.578;-4.520;2023-02-03T04:24:17;21.50;50.60
75615;DHT22;64199;48.578;-4.520;2023-02-03T04:26:43;21.50;50.60
75615;DHT22;64199;48.578;-4.520;2023-02-03T04:29:09;21.50;50.50
75615;DHT22;64199;48.578;-4.520;2023-02-03T04:31:34;21.50;50.00
75615;DHT22;64199;48.578;-4.520;2023-02-03T04:34:00;21.50;50.50
75615;DHT22;64199;48.578;-4.520;2023-02-03T04:36:26;21.50;50.50
75615;DHT22;64199;48.578;-4.520;2023-02-03T04:38:52;21.60;50.00
75615;DHT22;64199;48.578;-4.520;2023-02-03T04:41:17;21.60;50.50
75615;DHT22;64199;48.578;-4.520;2023-02-03T04:43:43;21.60;50.50
75615;DHT22;64199;48.578;-4.520;2023-02-03T04:46:09;21.60;50.40
75615;DHT22;64199;48.578;-4.520;2023-02-03T04:48:35;21.60;50.40
75615;DHT22;64199;48.578;-4.520;2023-02-03T04:51:01;21.60;50.40
75615;DHT22;64199;48.578;-4.520;2023-02-03T04:53:27;21.70;50.40
75615;DHT22;64199;48.578;-4.520;2023-02-03T04:55:53;21.70;49.90
75615;DHT22;64199;48.578;-4.520;2023-02-03T04:58:19;21.70;49.80
75615;DHT22;64199;48.578;-4.520;2023-02-03T05:00:44;21.70;50.30
75615;DHT22;64199;48.578;-4.520;2023-02-03T05:03:10;21.80;50.30
75615;DHT22;64199;48.578;-4.520;2023-02-03T05:05:36;21.80;50.30
75615;DHT22;64199;48.578;-4.520;2023-02-03T05:08:01;21.80;50.30
75615;DHT22;64199;48.578;-4.520;2023-02-03T05:10:27;21.80;50.30
75615;DHT22;64199;48.578;-4.520;2023-02-03T05:12:52;21.80;49.70
75615;DHT22;64199;48.578;-4.520;2023-02-03T05:15:18;21.80;50.20
75615;DHT22;64199;48.578;-4.520;2023-02-03T05:17:44;21.90;50.20
75615;DHT22;64199;48.578;-4.520;2023-02-03T05:20:09;21.90;50.20
75615;DHT22;64199;48.578;-4.520;2023-02-03T05:22:35;21.90;50.30
75615;DHT22;64199;48.578;-4.520;2023-02-03T05:25:01;21.90;50.40
75615;DHT22;64199;48.578;-4.520;2023-02-03T05:27:27;21.90;50.30
75615;DHT22;64199;48.578;-4.520;2023-02-03T05:29:53;21.90;50.30
75615;DHT22;64199;48.578;-4.520;2023-02-03T05:32:18;21.90;50.30
75615;DHT22;64199;48.578;-4.520;2023-02-03T05:34:44;21.90;50.30
75615;DHT22;64199;48.578;-4.520;2023-02-03T05:37:10;21.90;50.20
75615;DHT22;64199;48.578;-4.520;2023-02-03T05:39:35;21.90;50.20
75615;DHT22;64199;48.578;-4.520;2023-02-03T05:42:01;21.90;50.20
75615;DHT22;64199;48.578;-4.520;2023-02-03T05:44:28;22.00;50.20
75615;DHT22;64199;48.578;-4.520;2023-02-03T05:46:55;22.00;50.10
75615;DHT22;64199;48.578;-4.520;2023-02-03T05:49:21;22.00;50.10
75615;DHT22;64199;48.578;-4.520;2023-02-03T05:51:52;22.00;50.00
75615;DHT22;64199;48.578;-4.520;2023-02-03T05:54:18;22.10;50.10
75615;DHT22;64199;48.578;-4.520;2023-02-03T05:56:44;22.00;50.00
75615;DHT22;64199;48.578;-4.520;2023-02-03T05:59:10;22.10;49.90
75615;DHT22;64199;48.578;-4.520;2023-02-03T06:01:35;22.10;49.80
75615;DHT22;64199;48.578;-4.520;2023-02-03T06:04:01;22.10;49.70
75615;DHT22;64199;48.578;-4.520;2023-02-03T06:06:27;22.10;49.70
75615;DHT22;64199;48.578;-4.520;2023-02-03T06:09:04;22.10;49.60
75615;DHT22;64199;48.578;-4.520;2023-02-03T06:11:31;22.10;49.60
75615;DHT22;64199;48.578;-4.520;2023-02-03T06:13:58;22.10;49.60
75615;DHT22;64199;48.578;-4.520;2023-02-03T06:16:24;22.10;49.60
75615;DHT22;64199;48.578;-4.520;2023-02-03T06:18:50;22.10;49.60
75615;DHT22;64199;48.578;-4.520;2023-02-03T06:21:16;22.10;49.60
75615;DHT22;64199;48.578;-4.520;2023-02-03T06:23:42;22.10;49.60
75615;DHT22;64199;48.578;-4.520;2023-02-03T06:26:08;22.10;49.50
75615;DHT22;64199;48.578;-4.520;2023-02-03T06:28:34;22.10;49.50
75615;DHT22;64199;48.578;-4.520;2023-02-03T06:30:59;22.10;49.50
75615;DHT22;64199;48.578;-4.520;2023-02-03T06:33:25;22.10;49.50
75615;DHT22;64199;48.578;-4.520;2023-02-03T06:35:52;22.10;49.50
75615;DHT22;64199;48.578;-4.520;2023-02-03T06:38:17;22.20;49.60
75615;DHT22;64199;48.578;-4.520;2023-02-03T06:40:45;22.20;49.80
75615;DHT22;64199;48.578;-4.520;2023-02-03T06:43:10;22.20;49.90
75615;DHT22;64199;48.578;-4.520;2023-02-03T06:45:36;22.10;49.90
75615;DHT22;64199;48.578;-4.520;2023-02-03T06:48:02;22.10;49.80
75615;DHT22;64199;48.578;-4.520;2023-02-03T06:50:27;22.10;49.70
75615;DHT22;64199;48.578;-4.520;2023-02-03T06:52:53;22.10;50.30
75615;DHT22;64199;48.578;-4.520;2023-02-03T06:55:18;22.10;49.60
75615;DHT22;64199;48.578;-4.520;2023-02-03T06:57:44;22.00;49.50
75615;DHT22;64199;48.578;-4.520;2023-02-03T07:00:11;22.00;49.50
75615;DHT22;64199;48.578;-4.520;2023-02-03T07:02:38;21.90;49.40
75615;DHT22;64199;48.578;-4.520;2023-02-03T07:05:04;21.90;49.30
75615;DHT22;64199;48.578;-4.520;2023-02-03T07:07:30;21.90;49.30
75615;DHT22;64199;48.578;-4.520;2023-02-03T07:09:57;21.80;49.30
75615;DHT22;64199;48.578;-4.520;2023-02-03T07:12:22;21.80;49.40
75615;DHT22;64199;48.578;-4.520;2023-02-03T07:14:48;21.70;49.50
75615;DHT22;64199;48.578;-4.520;2023-02-03T07:17:14;21.60;49.00
75615;DHT22;64199;48.578;-4.520;2023-02-03T07:19:39;21.60;49.40
75615;DHT22;64199;48.578;-4.520;2023-02-03T07:22:05;21.60;49.40
75615;DHT22;64199;48.578;-4.520;2023-02-03T07:24:30;21.60;49.40
75615;DHT22;64199;48.578;-4.520;2023-02-03T07:26:56;21.50;49.40
75615;DHT22;64199;48.578;-4.520;2023-02-03T07:29:22;21.50;49.50
75615;DHT22;64199;48.578;-4.520;2023-02-03T07:31:47;21.40;49.50
75615;DHT22;64199;48.578;-4.520;2023-02-03T07:34:13;21.40;49.60
75615;DHT22;64199;48.578;-4.520;2023-02-03T07:36:39;21.30;49.70
75615;DHT22;64199;48.578;-4.520;2023-02-03T07:39:05;21.30;49.70
75615;DHT22;64199;48.578;-4.520;2023-02-03T07:41:31;21.30;49.80
75615;DHT22;64199;48.578;-4.520;2023-02-03T07:43:57;21.20;49.80
75615;DHT22;64199;48.578;-4.520;2023-02-03T07:46:23;21.10;49.30
75615;DHT22;64199;48.578;-4.520;2023-02-03T07:48:48;21.10;49.90
75615;DHT22;64199;48.578;-4.520;2023-02-03T07:51:14;21.10;50.60
75615;DHT22;64199;48.578;-4.520;2023-02-03T07:53:39;21.00;50.00
75615;DHT22;64199;48.578;-4.520;2023-02-03T07:56:05;21.00;50.20
75615;DHT22;64199;48.578;-4.520;2023-02-03T07:58:31;21.00;50.20
75615;DHT22;64199;48.578;-4.520;2023-02-03T08:00:58;20.90;50.20
75615;DHT22;64199;48.578;-4.520;2023-02-03T08:03:24;20.90;50.20
75615;DHT22;64199;48.578;-4.520;2023-02-03T08:05:49;20.90;49.70
75615;DHT22;64199;48.578;-4.520;2023-02-03T08:08:16;20.80;50.80
75615;DHT22;64199;48.578;-4.520;2023-02-03T08:10:41;20.80;50.30
75615;DHT22;64199;48.578;-4.520;2023-02-03T08:13:07;20.80;50.40
75615;DHT22;64199;48.578;-4.520;2023-02-03T08:15:33;20.70;50.40
75615;DHT22;64199;48.578;-4.520;2023-02-03T08:17:58;20.70;50.40
75615;DHT22;64199;48.578;-4.520;2023-02-03T08:20:24;20.70;50.00
75615;DHT22;64199;48.578;-4.520;2023-02-03T08:22:50;20.60;50.60
75615;DHT22;64199;48.578;-4.520;2023-02-03T08:25:16;20.60;50.00
75615;DHT22;64199;48.578;-4.520;2023-02-03T08:27:42;20.60;51.20
75615;DHT22;64199;48.578;-4.520;2023-02-03T08:30:09;20.50;50.50
75615;DHT22;64199;48.578;-4.520;2023-02-03T08:32:35;20.50;50.50
75615;DHT22;64199;48.578;-4.520;2023-02-03T08:35:01;20.50;50.60
75615;DHT22;64199;48.578;-4.520;2023-02-03T08:37:27;20.40;50.60
75615;DHT22;64199;48.578;-4.520;2023-02-03T08:39:56;20.40;50.70
75615;DHT22;64199;48.578;-4.520;2023-02-03T08:42:21;20.30;50.60
75615;DHT22;64199;48.578;-4.520;2023-02-03T08:44:47;20.30;50.70
75615;DHT22;64199;48.578;-4.520;2023-02-03T08:47:13;20.30;50.70
75615;DHT22;64199;48.578;-4.520;2023-02-03T08:49:39;20.20;50.70
75615;DHT22;64199;48.578;-4.520;2023-02-03T08:52:06;20.20;50.80
75615;DHT22;64199;48.578;-4.520;2023-02-03T08:54:32;20.10;50.80
75615;DHT22;64199;48.578;-4.520;2023-02-03T08:56:58;20.10;50.80
75615;DHT22;64199;48.578;-4.520;2023-02-03T08:59:24;20.10;50.80
75615;DHT22;64199;48.578;-4.520;2023-02-03T09:01:50;20.00;50.80
75615;DHT22;64199;48.578;-4.520;2023-02-03T09:04:16;20.00;50.40
75615;DHT22;64199;48.578;-4.520;2023-02-03T09:06:46;20.00;50.90
75615;DHT22;64199;48.578;-4.520;2023-02-03T09:09:13;19.90;50.80
75615;DHT22;64199;48.578;-4.520;2023-02-03T09:11:39;19.90;50.40
75615;DHT22;64199;48.578;-4.520;2023-02-03T09:14:05;19.90;51.00
75615;DHT22;64199;48.578;-4.520;2023-02-03T09:16:30;19.80;50.90
75615;DHT22;64199;48.578;-4.520;2023-02-03T09:18:56;19.80;51.00
75615;DHT22;64199;48.578;-4.520;2023-02-03T09:21:22;19.70;50.90
75615;DHT22;64199;48.578;-4.520;2023-02-03T09:23:48;19.80;51.10
75615;DHT22;64199;48.578;-4.520;2023-02-03T09:26:15;19.70;51.10
75615;DHT22;64199;48.578;-4.520;2023-02-03T09:28:41;19.70;51.10
75615;DHT22;64199;48.578;-4.520;2023-02-03T09:31:11;19.70;51.00
75615;DHT22;64199;48.578;-4.520;2023-02-03T09:33:37;19.70;50.90
75615;DHT22;64199;48.578;-4.520;2023-02-03T09:36:03;19.70;51.00
75615;DHT22;64199;48.578;-4.520;2023-02-03T09:38:30;19.80;51.10
75615;DHT22;64199;48.578;-4.520;2023-02-03T09:40:58;19.80;51.20
75615;DHT22;64199;48.578;-4.520;2023-02-03T09:45:50;19.80;51.20
75615;DHT22;64199;48.578;-4.520;2023-02-03T09:48:20;19.80;50.70
75615;DHT22;64199;48.578;-4.520;2023-02-03T09:50:47;19.90;51.30
75615;DHT22;64199;48.578;-4.520;2023-02-03T09:53:32;19.90;51.40
75615;DHT22;64199;48.578;-4.520;2023-02-03T09:56:00;20.00;51.50
75615;DHT22;64199;48.578;-4.520;2023-02-03T09:58:26;20.00;51.50
75615;DHT22;64199;48.578;-4.520;2023-02-03T10:00:55;20.10;51.60
75615;DHT22;64199;48.578;-4.520;2023-02-03T10:11:02;20.20;52.80
75615;DHT22;64199;48.578;-4.520;2023-02-03T10:18:46;20.30;52.60
75615;DHT22;64199;48.578;-4.520;2023-02-03T10:21:38;20.40;52.50
75615;DHT22;64199;48.578;-4.520;2023-02-03T10:24:05;20.40;52.50
75615;DHT22;64199;48.578;-4.520;2023-02-03T10:26:33;20.40;52.50
75615;DHT22;64199;48.578;-4.520;2023-02-03T10:29:19;20.50;52.40
75615;DHT22;64199;48.578;-4.520;2023-02-03T10:31:46;20.50;52.30
75615;DHT22;64199;48.578;-4.520;2023-02-03T10:34:13;20.60;52.20
75615;DHT22;64199;48.578;-4.520;2023-02-03T10:39:25;20.60;52.60
75615;DHT22;64199;48.578;-4.520;2023-02-03T10:41:53;20.60;52.20
75615;DHT22;64199;48.578;-4.520;2023-02-03T10:44:20;20.70;52.20
75615;DHT22;64199;48.578;-4.520;2023-02-03T10:46:49;20.70;52.10
75615;DHT22;64199;48.578;-4.520;2023-02-03T10:49:15;20.70;52.10
75615;DHT22;64199;48.578;-4.520;2023-02-03T10:51:50;20.80;52.20
75615;DHT22;64199;48.578;-4.520;2023-02-03T10:54:49;20.80;52.20
75615;DHT22;64199;48.578;-4.520;2023-02-03T10:57:12;20.80;51.60
75615;DHT22;64199;48.578;-4.520;2023-02-03T10:59:40;20.80;52.10
75615;DHT22;64199;48.578;-4.520;2023-02-03T11:02:07;20.90;52.10
75615;DHT22;64199;48.578;-4.520;2023-02-03T11:04:33;22.50;52.80
75615;DHT22;64199;48.578;-4.520;2023-02-03T11:07:00;20.90;51.70
75615;DHT22;64199;48.578;-4.520;2023-02-03T11:09:33;21.00;51.80
75615;DHT22;64199;48.578;-4.520;2023-02-03T11:12:06;21.00;52.30
75615;DHT22;64199;48.578;-4.520;2023-02-03T11:14:37;21.00;51.70
75615;DHT22;64199;48.578;-4.520;2023-02-03T11:17:07;21.00;52.20
75615;DHT22;64199;48.578;-4.520;2023-02-03T11:19:33;21.10;51.70
75615;DHT22;64199;48.578;-4.520;2023-02-03T11:22:01;21.10;52.10
75615;DHT22;64199;48.578;-4.520;2023-02-03T11:24:36;21.10;51.50
75615;DHT22;64199;48.578;-4.520;2023-02-03T11:27:13;21.10;52.10
75615;DHT22;64199;48.578;-4.520;2023-02-03T11:29:42;21.20;52.10
75615;DHT22;64199;48.578;-4.520;2023-02-03T11:34:43;21.20;51.90
75615;DHT22;64199;48.578;-4.520;2023-02-03T11:39:48;21.30;51.90
75615;DHT22;64199;48.578;-4.520;2023-02-03T11:42:20;21.20;51.80
75615;DHT22;64199;48.578;-4.520;2023-02-03T11:44:46;21.30;51.90
75615;DHT22;64199;48.578;-4.520;2023-02-03T11:47:12;21.30;52.10
75615;DHT22;64199;48.578;-4.520;2023-02-03T11:49:45;21.30;51.70
75615;DHT22;64199;48.578;-4.520;2023-02-03T11:58:10;21.40;51.50
75615;DHT22;64199;48.578;-4.520;2023-02-03T12:05:49;21.90;51.50
75615;DHT22;64199;48.578;-4.520;2023-02-03T12:08:22;21.50;51.20
75615;DHT22;64199;48.578;-4.520;2023-02-03T12:11:05;21.50;51.20
75615;DHT22;64199;48.578;-4.520;2023-02-03T12:29:10;21.70;51.00
75615;DHT22;64199;48.578;-4.520;2023-02-03T12:36:51;21.70;50.90
75615;DHT22;64199;48.578;-4.520;2023-02-03T12:39:23;21.70;50.80
75615;DHT22;64199;48.578;-4.520;2023-02-03T12:41:54;21.80;50.90
75615;DHT22;64199;48.578;-4.520;2023-02-03T12:45:22;21.80;50.80
75615;DHT22;64199;48.578;-4.520;2023-02-03T12:47:26;21.80;50.80
75615;DHT22;64199;48.578;-4.520;2023-02-03T12:49:55;21.80;50.80
75615;DHT22;64199;48.578;-4.520;2023-02-03T12:52:37;21.90;50.80
75615;DHT22;64199;48.578;-4.520;2023-02-03T12:55:16;21.80;50.70
75615;DHT22;64199;48.578;-4.520;2023-02-03T13:00:18;21.90;50.80
75615;DHT22;64199;48.578;-4.520;2023-02-03T13:02:55;21.90;50.70
75615;DHT22;64199;48.578;-4.520;2023-02-03T13:05:29;21.90;50.80
75615;DHT22;64199;48.578;-4.520;2023-02-03T13:08:17;21.80;50.80
75615;DHT22;64199;48.578;-4.520;2023-02-03T13:13:37;21.80;50.90
75615;DHT22;64199;48.578;-4.520;2023-02-03T13:16:05;21.70;50.90
75615;DHT22;64199;48.578;-4.520;2023-02-03T13:18:33;21.70;50.80
75615;DHT22;64199;48.578;-4.520;2023-02-03T13:21:00;21.70;50.80
75615;DHT22;64199;48.578;-4.520;2023-02-03T13:23:26;21.60;50.80
75615;DHT22;64199;48.578;-4.520;2023-02-03T13:44:11;21.30;51.10
75615;DHT22;64199;48.578;-4.520;2023-02-03T13:46:38;21.30;50.50
75615;DHT22;64199;48.578;-4.520;2023-02-03T13:49:04;21.30;50.50
75615;DHT22;64199;48.578;-4.520;2023-02-03T13:51:35;21.20;50.40
75615;DHT22;64199;48.578;-4.520;2023-02-03T13:54:03;21.10;49.90
75615;DHT22;64199;48.578;-4.520;2023-02-03T13:56:29;21.10;50.40
75615;DHT22;64199;48.578;-4.520;2023-02-03T14:01:40;21.10;50.50
75615;DHT22;64199;48.578;-4.520;2023-02-03T14:04:06;21.00;50.40
75615;DHT22;64199;48.578;-4.520;2023-02-03T14:11:50;20.90;50.00
75615;DHT22;64199;48.578;-4.520;2023-02-03T14:16:42;20.90;50.50
75615;DHT22;64199;48.578;-4.520;2023-02-03T14:19:11;20.80;50.50
75615;DHT22;64199;48.578;-4.520;2023-02-03T14:21:42;20.80;50.50
75615;DHT22;64199;48.578;-4.520;2023-02-03T14:24:11;20.80;50.70
75615;DHT22;64199;48.578;-4.520;2023-02-03T14:26:38;20.80;50.60
75615;DHT22;64199;48.578;-4.520;2023-02-03T14:29:06;20.70;50.50
75615;DHT22;64199;48.578;-4.520;2023-02-03T14:31:50;20.70;50.60
75615;DHT22;64199;48.578;-4.520;2023-02-03T14:34:16;20.70;50.60
75615;DHT22;64199;48.578;-4.520;2023-02-03T14:36:43;20.60;50.60
75615;DHT22;64199;48.578;-4.520;2023-02-03T14:39:55;20.60;50.60
75615;DHT22;64199;48.578;-4.520;2023-02-03T14:50:16;20.50;50.70
75615;DHT22;64199;48.578;-4.520;2023-02-03T14:52:52;20.40;50.70
75615;DHT22;64199;48.578;-4.520;2023-02-03T14:57:59;20.40;50.80
75615;DHT22;64199;48.578;-4.520;2023-02-03T15:00:30;20.30;50.80
75615;DHT22;64199;48.578;-4.520;2023-02-03T15:05:44;20.30;50.90
75615;DHT22;64199;48.578;-4.520;2023-02-03T15:10:53;20.20;50.90
75615;DHT22;64199;48.578;-4.520;2023-02-03T15:13:29;20.20;50.40
75615;DHT22;64199;48.578;-4.520;2023-02-03T15:15:56;20.10;50.40
75615;DHT22;64199;48.578;-4.520;2023-02-03T15:18:28;20.10;50.90
75615;DHT22;64199;48.578;-4.520;2023-02-03T15:20:54;20.10;50.90
75615;DHT22;64199;48.578;-4.520;2023-02-03T15:23:21;20.00;50.90
75615;DHT22;64199;48.578;-4.520;2023-02-03T15:25:57;20.00;51.00
75615;DHT22;64199;48.578;-4.520;2023-02-03T15:28:24;20.00;50.50
75615;DHT22;64199;48.578;-4.520;2023-02-03T15:30:51;20.00;51.00
75615;DHT22;64199;48.578;-4.520;2023-02-03T15:33:20;19.90;51.00
75615;DHT22;64199;48.578;-4.520;2023-02-03T15:35:47;19.90;51.10
75615;DHT22;64199;48.578;-4.520;2023-02-03T15:38:19;19.90;51.10
75615;DHT22;64199;48.578;-4.520;2023-02-03T15:40:46;19.90;51.10
75615;DHT22;64199;48.578;-4.520;2023-02-03T15:43:15;19.90;51.10
75615;DHT22;64199;48.578;-4.520;2023-02-03T15:46:05;19.90;51.20
75615;DHT22;64199;48.578;-4.520;2023-02-03T15:51:06;20.00;51.40
75615;DHT22;64199;48.578;-4.520;2023-02-03T15:53:33;20.00;51.50
75615;DHT22;64199;48.578;-4.520;2023-02-03T15:56:02;20.10;51.60
75615;DHT22;64199;48.578;-4.520;2023-02-03T15:58:31;20.10;51.70
75615;DHT22;64199;48.578;-4.520;2023-02-03T16:01:02;20.00;51.20
75615;DHT22;64199;48.578;-4.520;2023-02-03T16:03:36;20.10;51.80
75615;DHT22;64199;48.578;-4.520;2023-02-03T16:06:07;20.20;51.90
75615;DHT22;64199;48.578;-4.520;2023-02-03T16:08:37;20.20;51.90
75615;DHT22;64199;48.578;-4.520;2023-02-03T16:13:48;20.30;51.40
75615;DHT22;64199;48.578;-4.520;2023-02-03T16:16:19;20.30;52.00
75615;DHT22;64199;48.578;-4.520;2023-02-03T16:18:49;20.30;52.00
75615;DHT22;64199;48.578;-4.520;2023-02-03T16:21:30;20.40;52.00
75615;DHT22;64199;48.578;-4.520;2023-02-03T16:24:00;20.40;52.00
75615;DHT22;64199;48.578;-4.520;2023-02-03T16:26:26;20.40;52.00
75615;DHT22;64199;48.578;-4.520;2023-02-03T16:28:56;20.40;51.90
75615;DHT22;64199;48.578;-4.520;2023-02-03T16:31:45;20.50;51.90
75615;DHT22;64199;48.578;-4.520;2023-02-03T16:34:29;20.50;51.90
75615;DHT22;64199;48.578;-4.520;2023-02-03T16:37:24;20.60;51.90
75615;DHT22;64199;48.578;-4.520;2023-02-03T16:40:10;20.60;51.90
75615;DHT22;64199;48.578;-4.520;2023-02-03T16:42:54;20.60;51.80
75615;DHT22;64199;48.578;-4.520;2023-02-03T16:45:38;20.70;51.80
75615;DHT22;64199;48.578;-4.520;2023-02-03T16:48:22;20.70;51.70
75615;DHT22;64199;48.578;-4.520;2023-02-03T16:51:10;20.70;51.70
75615;DHT22;64199;48.578;-4.520;2023-02-03T16:53:36;20.80;51.20
75615;DHT22;64199;48.578;-4.520;2023-02-03T16:56:02;20.80;51.70
75615;DHT22;64199;48.578;-4.520;2023-02-03T16:58:29;20.80;51.70
75615;DHT22;64199;48.578;-4.520;2023-02-03T17:00:56;20.80;51.70
75615;DHT22;64199;48.578;-4.520;2023-02-03T17:03:23;20.90;51.70
75615;DHT22;64199;48.578;-4.520;2023-02-03T17:05:50;20.90;51.60
75615;DHT22;64199;48.578;-4.520;2023-02-03T17:08:16;20.90;51.60
75615;DHT22;64199;48.578;-4.520;2023-02-03T17:10:43;20.90;51.60
75615;DHT22;64199;48.578;-4.520;2023-02-03T17:13:09;21.00;51.60
75615;DHT22;64199;48.578;-4.520;2023-02-03T17:15:38;21.00;51.50
75615;DHT22;64199;48.578;-4.520;2023-02-03T17:18:04;21.00;51.50
75615;DHT22;64199;48.578;-4.520;2023-02-03T17:20:30;21.10;51.50
75615;DHT22;64199;48.578;-4.520;2023-02-03T17:22:55;21.10;51.50
75615;DHT22;64199;48.578;-4.520;2023-02-03T17:25:21;21.10;51.40
75615;DHT22;64199;48.578;-4.520;2023-02-03T17:27:47;21.10;51.40
75615;DHT22;64199;48.578;-4.520;2023-02-03T17:30:13;21.10;51.40
75615;DHT22;64199;48.578;-4.520;2023-02-03T17:32:38;21.10;51.40
75615;DHT22;64199;48.578;-4.520;2023-02-03T17:35:04;21.20;51.40
75615;DHT22;64199;48.578;-4.520;2023-02-03T17:37:33;21.20;51.40
75615;DHT22;64199;48.578;-4.520;2023-02-03T17:39:59;21.20;50.80
75615;DHT22;64199;48.578;-4.520;2023-02-03T17:42:24;21.20;51.30
75615;DHT22;64199;48.578;-4.520;2023-02-03T17:44:50;21.20;51.30